sensor_id;sensor_type;location;lat;lon;timestamp;P1;durP1;ratioP1;P2;durP2;ratioP2
4375;SDS011;2202;50.866;12.750;2023-05-16T00:01:07;20.80;;;17.83;;
4375;SDS011;2202;50.866;12.750;2023-05-16T00:03:36;19.60;;;17.33;;
4375;SDS011;2202;50.866;12.750;2023-05-16T00:06:03;21.47;;;17.67;;
4375;SDS011;2202;50.866;12.750;2023-05-16T00:08:30;20.17;;;18.07;;
4375;SDS011;2202;50.866;12.750;2023-05-16T00:10:57;19.03;;;17.07;;
4375;SDS011;2202;50.866;12.750;2023-05-16T00:13:24;19.70;;;17.37;;
4375;SDS011;2202;50.866;12.750;2023-05-16T00:15:50;20.10;;;18.00;;
4375;SDS011;2202;50.866;12.750;2023-05-16T00:18:19;22.53;;;19.70;;
4375;SDS011;2202;50.866;12.750;2023-05-16T00:20:47;24.33;;;20.13;;
4375;SDS011;2202;50.866;12.750;2023-05-16T00:23:15;21.17;;;18.97;;
4375;SDS011;2202;50.866;12.750;2023-05-16T00:25:42;22.13;;;18.60;;
4375;SDS011;2202;50.866;12.750;2023-05-16T00:28:10;20.03;;;17.80;;
4375;SDS011;2202;50.866;12.750;2023-05-16T00:30:37;23.13;;;19.23;;
4375;SDS011;2202;50.866;12.750;2023-05-16T00:33:04;21.67;;;19.40;;
4375;SDS011;2202;50.866;12.750;2023-05-16T00:35:31;21.83;;;18.30;;
4375;SDS011;2202;50.866;12.750;2023-05-16T00:37:59;23.10;;;19.97;;
4375;SDS011;2202;50.866;12.750;2023-05-16T00:40:26;22.13;;;19.83;;
4375;SDS011;2202;50.866;12.750;2023-05-16T00:42:53;19.83;;;17.67;;
4375;SDS011;2202;50.866;12.750;2023-05-16T00:45:20;22.97;;;20.13;;
4375;SDS011;2202;50.866;12.750;2023-05-16T00:47:47;20.83;;;18.60;;
4375;SDS011;2202;50.866;12.750;2023-05-16T00:50:14;21.73;;;18.80;;
4375;SDS011;2202;50.866;12.750;2023-05-16T00:52:42;19.90;;;17.87;;
4375;SDS011;2202;50.866;12.750;2023-05-16T00:55:10;21.33;;;18.53;;
4375;SDS011;2202;50.866;12.750;2023-05-16T00:57:37;20.73;;;18.50;;
4375;SDS011;2202;50.866;12.750;2023-05-16T01:00:05;20.83;;;18.20;;
4375;SDS011;2202;50.866;12.750;2023-05-16T01:02:34;19.90;;;17.90;;
4375;SDS011;2202;50.866;12.750;2023-05-16T01:05:02;23.37;;;18.83;;
4375;SDS011;2202;50.866;12.750;2023-05-16T01:07:30;22.20;;;18.50;;
4375;SDS011;2202;50.866;12.750;2023-05-16T01:09:57;22.37;;;18.50;;
4375;SDS011;2202;50.866;12.750;2023-05-16T01:12:28;21.10;;;18.80;;
4375;SDS011;2202;50.866;12.750;2023-05-16T01:15:04;20.40;;;18.20;;
4375;SDS011;2202;50.866;12.750;2023-05-16T01:17:36;23.63;;;18.50;;
4375;SDS011;2202;50.866;12.750;2023-05-16T01:20:10;20.20;;;18.03;;
4375;SDS011;2202;50.866;12.750;2023-05-16T01:22:51;20.77;;;17.47;;
4375;SDS011;2202;50.866;12.750;2023-05-16T01:25:30;22.17;;;18.33;;
4375;SDS011;2202;50.866;12.750;2023-05-16T01:28:04;24.37;;;18.23;;
4375;SDS011;2202;50.866;12.750;2023-05-16T01:30:34;21.80;;;19.50;;
4375;SDS011;2202;50.866;12.750;2023-05-16T01:33:04;20.37;;;18.20;;
4375;SDS011;2202;50.866;12.750;2023-05-16T01:35:31;23.20;;;18.47;;
4375;SDS011;2202;50.866;12.750;2023-05-16T01:38:03;21.53;;;18.30;;
4375;SDS011;2202;50.866;12.750;2023-05-16T01:40:35;20.50;;;17.80;;
4375;SDS011;2202;50.866;12.750;2023-05-16T01:43:12;21.97;;;18.43;;
4375;SDS011;2202;50.866;12.750;2023-05-16T01:45:44;19.40;;;17.33;;
4375;SDS011;2202;50.866;12.750;2023-05-16T01:48:18;23.93;;;18.10;;
4375;SDS011;2202;50.866;12.750;2023-05-16T01:50:49;19.57;;;16.47;;
4375;SDS011;2202;50.866;12.750;2023-05-16T01:53:22;29.43;;;21.17;;
4375;SDS011;2202;50.866;12.750;2023-05-16T01:55:55;22.80;;;19.00;;
4375;SDS011;2202;50.866;12.750;2023-05-16T01:58:25;22.17;;;19.77;;
4375;SDS011;2202;50.866;12.750;2023-05-16T02:00:58;22.57;;;18.90;;
4375;SDS011;2202;50.866;12.750;2023-05-16T02:03:27;26.20;;;20.57;;
4375;SDS011;2202;50.866;12.750;2023-05-16T02:05:54;28.40;;;21.57;;
4375;SDS011;2202;50.866;12.750;2023-05-16T02:08:21;26.50;;;20.20;;
4375;SDS011;2202;50.866;12.750;2023-05-16T02:10:48;24.53;;;20.67;;
4375;SDS011;2202;50.866;12.750;2023-05-16T02:13:15;21.90;;;18.80;;
4375;SDS011;2202;50.866;12.750;2023-05-16T02:15:44;24.77;;;19.80;;
4375;SDS011;2202;50.866;12.750;2023-05-16T02:18:11;27.20;;;20.77;;
4375;SDS011;2202;50.866;12.750;2023-05-16T02:20:37;23.03;;;19.77;;
4375;SDS011;2202;50.866;12.750;2023-05-16T02:23:04;19.73;;;17.07;;
4375;SDS011;2202;50.866;12.750;2023-05-16T02:25:31;24.00;;;20.00;;
4375;SDS011;2202;50.866;12.750;2023-05-16T02:27:58;21.87;;;19.10;;
4375;SDS011;2202;50.866;12.750;2023-05-16T02:30:25;26.07;;;19.70;;
4375;SDS011;2202;50.866;12.750;2023-05-16T02:32:53;23.80;;;18.30;;
4375;SDS011;2202;50.866;12.750;2023-05-16T02:35:20;24.83;;;19.00;;
4375;SDS011;2202;50.866;12.750;2023-05-16T02:37:47;21.90;;;19.13;;
4375;SDS011;2202;50.866;12.750;2023-05-16T02:40:14;19.93;;;17.80;;
4375;SDS011;2202;50.866;12.750;2023-05-16T02:42:41;20.13;;;18.03;;
4375;SDS011;2202;50.866;12.750;2023-05-16T02:45:08;20.67;;;17.60;;
4375;SDS011;2202;50.866;12.750;2023-05-16T02:47:36;19.10;;;17.07;;
4375;SDS011;2202;50.866;12.750;2023-05-16T02:50:04;21.43;;;17.97;;
4375;SDS011;2202;50.866;12.750;2023-05-16T02:52:32;24.23;;;18.90;;
4375;SDS011;2202;50.866;12.750;2023-05-16T02:54:58;19.77;;;17.63;;
4375;SDS011;2202;50.866;12.750;2023-05-16T02:57:25;19.73;;;17.73;;
4375;SDS011;2202;50.866;12.750;2023-05-16T02:59:52;17.47;;;15.80;;
4375;SDS011;2202;50.866;12.750;2023-05-16T03:02:19;19.97;;;16.80;;
4375;SDS011;2202;50.866;12.750;2023-05-16T03:04:46;25.83;;;18.60;;
4375;SDS011;2202;50.866;12.750;2023-05-16T03:07:14;21.03;;;18.77;;
4375;SDS011;2202;50.866;12.750;2023-05-16T03:09:41;23.17;;;19.73;;
4375;SDS011;2202;50.866;12.750;2023-05-16T03:12:08;27.50;;;20.30;;
4375;SDS011;2202;50.866;12.750;2023-05-16T03:14:35;24.43;;;20.53;;
4375;SDS011;2202;50.866;12.750;2023-05-16T03:17:02;23.40;;;19.10;;
4375;SDS011;2202;50.866;12.750;2023-05-16T03:19:29;21.57;;;19.27;;
4375;SDS011;2202;50.866;12.750;2023-05-16T03:21:56;24.33;;;19.87;;
4375;SDS011;2202;50.866;12.750;2023-05-16T03:24:24;25.20;;;20.90;;
4375;SDS011;2202;50.866;12.750;2023-05-16T03:26:51;27.03;;;21.53;;
4375;SDS011;2202;50.866;12.750;2023-05-16T03:29:18;22.80;;;19.40;;
4375;SDS011;2202;50.866;12.750;2023-05-16T03:31:45;25.93;;;22.10;;
4375;SDS011;2202;50.866;12.750;2023-05-16T03:34:11;25.50;;;20.50;;
4375;SDS011;2202;50.866;12.750;2023-05-16T03:36:38;28.40;;;21.47;;
4375;SDS011;2202;50.866;12.750;2023-05-16T03:39:07;25.03;;;20.30;;
4375;SDS011;2202;50.866;12.750;2023-05-16T03:41:35;24.30;;;18.90;;
4375;SDS011;2202;50.866;12.750;2023-05-16T03:44:02;26.90;;;21.67;;
4375;SDS011;2202;50.866;12.750;2023-05-16T03:46:29;22.70;;;19.70;;
4375;SDS011;2202;50.866;12.750;2023-05-16T03:48:56;27.17;;;20.10;;
4375;SDS011;2202;50.866;12.750;2023-05-16T03:51:24;26.90;;;20.00;;
4375;SDS011;2202;50.866;12.750;2023-05-16T03:53:50;22.60;;;19.63;;
4375;SDS011;2202;50.866;12.750;2023-05-16T03:56:17;23.90;;;19.73;;
4375;SDS011;2202;50.866;12.750;2023-05-16T03:58:47;27.77;;;20.20;;
4375;SDS011;2202;50.866;12.750;2023-05-16T04:01:13;27.63;;;20.40;;
4375;SDS011;2202;50.866;12.750;2023-05-16T04:03:40;23.30;;;19.73;;
4375;SDS011;2202;50.866;12.750;2023-05-16T04:06:07;25.40;;;20.60;;
4375;SDS011;2202;50.866;12.750;2023-05-16T04:08:34;25.17;;;20.73;;
4375;SDS011;2202;50.866;12.750;2023-05-16T04:11:03;24.87;;;17.90;;
4375;SDS011;2202;50.866;12.750;2023-05-16T04:13:30;25.97;;;21.40;;
4375;SDS011;2202;50.866;12.750;2023-05-16T04:15:58;22.83;;;19.70;;
4375;SDS011;2202;50.866;12.750;2023-05-16T04:18:25;22.27;;;19.20;;
4375;SDS011;2202;50.866;12.750;2023-05-16T04:20:52;25.53;;;19.87;;
4375;SDS011;2202;50.866;12.750;2023-05-16T04:23:18;27.53;;;21.07;;
4375;SDS011;2202;50.866;12.750;2023-05-16T04:25:45;27.50;;;20.50;;
4375;SDS011;2202;50.866;12.750;2023-05-16T04:28:12;27.20;;;21.20;;
4375;SDS011;2202;50.866;12.750;2023-05-16T04:30:39;28.23;;;20.20;;
4375;SDS011;2202;50.866;12.750;2023-05-16T04:33:08;27.27;;;20.30;;
4375;SDS011;2202;50.866;12.750;2023-05-16T04:35:34;30.77;;;22.10;;
4375;SDS011;2202;50.866;12.750;2023-05-16T04:38:01;28.87;;;22.20;;
4375;SDS011;2202;50.866;12.750;2023-05-16T04:40:28;28.23;;;20.97;;
4375;SDS011;2202;50.866;12.750;2023-05-16T04:42:55;34.73;;;23.83;;
4375;SDS011;2202;50.866;12.750;2023-05-16T04:45:22;28.20;;;21.67;;
4375;SDS011;2202;50.866;12.750;2023-05-16T04:47:49;31.17;;;22.80;;
4375;SDS011;2202;50.866;12.750;2023-05-16T04:50:17;29.90;;;23.00;;
4375;SDS011;2202;50.866;12.750;2023-05-16T04:52:44;31.43;;;24.13;;
4375;SDS011;2202;50.866;12.750;2023-05-16T04:55:11;33.70;;;25.07;;
4375;SDS011;2202;50.866;12.750;2023-05-16T04:57:38;35.17;;;24.10;;
4375;SDS011;2202;50.866;12.750;2023-05-16T05:00:05;36.07;;;25.67;;
4375;SDS011;2202;50.866;12.750;2023-05-16T05:02:34;34.60;;;25.80;;
4375;SDS011;2202;50.866;12.750;2023-05-16T05:05:01;38.70;;;26.80;;
4375;SDS011;2202;50.866;12.750;2023-05-16T05:07:30;36.43;;;25.57;;
4375;SDS011;2202;50.866;12.750;2023-05-16T05:09:57;35.93;;;25.90;;
4375;SDS011;2202;50.866;12.750;2023-05-16T05:12:24;34.03;;;25.47;;
4375;SDS011;2202;50.866;12.750;2023-05-16T05:14:52;40.80;;;27.40;;
4375;SDS011;2202;50.866;12.750;2023-05-16T05:17:19;41.13;;;27.77;;
4375;SDS011;2202;50.866;12.750;2023-05-16T05:19:46;39.37;;;28.23;;
4375;SDS011;2202;50.866;12.750;2023-05-16T05:22:13;38.50;;;28.20;;
4375;SDS011;2202;50.866;12.750;2023-05-16T05:24:41;47.80;;;29.47;;
4375;SDS011;2202;50.866;12.750;2023-05-16T05:27:08;37.67;;;28.90;;
4375;SDS011;2202;50.866;12.750;2023-05-16T05:29:35;42.33;;;28.17;;
4375;SDS011;2202;50.866;12.750;2023-05-16T05:32:02;41.60;;;27.70;;
4375;SDS011;2202;50.866;12.750;2023-05-16T05:34:29;41.60;;;29.80;;
4375;SDS011;2202;50.866;12.750;2023-05-16T05:36:57;43.13;;;28.83;;
4375;SDS011;2202;50.866;12.750;2023-05-16T05:39:24;44.30;;;28.80;;
4375;SDS011;2202;50.866;12.750;2023-05-16T05:41:52;45.00;;;30.73;;
4375;SDS011;2202;50.866;12.750;2023-05-16T05:44:19;47.97;;;29.00;;
4375;SDS011;2202;50.866;12.750;2023-05-16T05:46:46;45.17;;;29.87;;
4375;SDS011;2202;50.866;12.750;2023-05-16T05:49:13;40.60;;;29.23;;
4375;SDS011;2202;50.866;12.750;2023-05-16T05:51:40;42.77;;;28.30;;
4375;SDS011;2202;50.866;12.750;2023-05-16T05:54:07;45.60;;;29.77;;
4375;SDS011;2202;50.866;12.750;2023-05-16T05:56:34;47.77;;;32.23;;
4375;SDS011;2202;50.866;12.750;2023-05-16T05:59:02;41.40;;;27.90;;
4375;SDS011;2202;50.866;12.750;2023-05-16T06:01:29;44.50;;;28.60;;
4375;SDS011;2202;50.866;12.750;2023-05-16T06:03:56;45.60;;;29.70;;
4375;SDS011;2202;50.866;12.750;2023-05-16T06:06:22;46.33;;;29.17;;
4375;SDS011;2202;50.866;12.750;2023-05-16T06:08:49;43.70;;;29.57;;
4375;SDS011;2202;50.866;12.750;2023-05-16T06:11:17;44.40;;;29.27;;
4375;SDS011;2202;50.866;12.750;2023-05-16T06:13:44;47.40;;;30.60;;
4375;SDS011;2202;50.866;12.750;2023-05-16T06:16:12;45.33;;;30.47;;
4375;SDS011;2202;50.866;12.750;2023-05-16T06:18:39;42.67;;;27.90;;
4375;SDS011;2202;50.866;12.750;2023-05-16T06:21:06;47.07;;;30.57;;
4375;SDS011;2202;50.866;12.750;2023-05-16T06:23:33;45.73;;;31.03;;
4375;SDS011;2202;50.866;12.750;2023-05-16T06:26:00;44.63;;;29.83;;
4375;SDS011;2202;50.866;12.750;2023-05-16T06:28:27;43.10;;;31.90;;
4375;SDS011;2202;50.866;12.750;2023-05-16T06:30:53;40.23;;;28.70;;
4375;SDS011;2202;50.866;12.750;2023-05-16T06:33:22;43.80;;;28.13;;
4375;SDS011;2202;50.866;12.750;2023-05-16T06:35:48;42.93;;;29.63;;
4375;SDS011;2202;50.866;12.750;2023-05-16T06:38:16;41.60;;;27.03;;
4375;SDS011;2202;50.866;12.750;2023-05-16T06:40:44;38.20;;;25.87;;
4375;SDS011;2202;50.866;12.750;2023-05-16T06:43:11;40.27;;;27.70;;
4375;SDS011;2202;50.866;12.750;2023-05-16T06:45:37;38.83;;;27.03;;
4375;SDS011;2202;50.866;12.750;2023-05-16T06:48:05;40.83;;;24.83;;
4375;SDS011;2202;50.866;12.750;2023-05-16T06:50:34;39.97;;;25.73;;
4375;SDS011;2202;50.866;12.750;2023-05-16T06:53:01;42.13;;;27.47;;
4375;SDS011;2202;50.866;12.750;2023-05-16T06:55:29;42.10;;;28.87;;
4375;SDS011;2202;50.866;12.750;2023-05-16T06:57:55;39.20;;;25.60;;
4375;SDS011;2202;50.866;12.750;2023-05-16T07:00:22;40.33;;;25.03;;
4375;SDS011;2202;50.866;12.750;2023-05-16T07:02:50;37.73;;;25.97;;
4375;SDS011;2202;50.866;12.750;2023-05-16T07:05:17;37.60;;;26.03;;
4375;SDS011;2202;50.866;12.750;2023-05-16T07:07:45;44.23;;;26.33;;
4375;SDS011;2202;50.866;12.750;2023-05-16T07:10:13;37.43;;;26.00;;
4375;SDS011;2202;50.866;12.750;2023-05-16T07:12:41;36.50;;;25.57;;
4375;SDS011;2202;50.866;12.750;2023-05-16T07:15:08;36.97;;;25.47;;
4375;SDS011;2202;50.866;12.750;2023-05-16T07:17:36;37.33;;;23.73;;
4375;SDS011;2202;50.866;12.750;2023-05-16T07:20:03;37.87;;;24.03;;
4375;SDS011;2202;50.866;12.750;2023-05-16T07:22:31;38.30;;;26.77;;
4375;SDS011;2202;50.866;12.750;2023-05-16T07:24:59;33.63;;;24.40;;
4375;SDS011;2202;50.866;12.750;2023-05-16T07:27:26;42.77;;;27.03;;
4375;SDS011;2202;50.866;12.750;2023-05-16T07:29:53;46.83;;;27.13;;
4375;SDS011;2202;50.866;12.750;2023-05-16T07:32:19;38.57;;;23.80;;
4375;SDS011;2202;50.866;12.750;2023-05-16T07:34:46;41.43;;;25.90;;
4375;SDS011;2202;50.866;12.750;2023-05-16T07:37:13;49.60;;;28.27;;
4375;SDS011;2202;50.866;12.750;2023-05-16T07:39:40;38.87;;;23.10;;
4375;SDS011;2202;50.866;12.750;2023-05-16T07:42:09;44.10;;;27.20;;
4375;SDS011;2202;50.866;12.750;2023-05-16T07:44:35;42.23;;;29.23;;
4375;SDS011;2202;50.866;12.750;2023-05-16T07:47:02;44.97;;;27.10;;
4375;SDS011;2202;50.866;12.750;2023-05-16T07:49:30;32.27;;;21.20;;
4375;SDS011;2202;50.866;12.750;2023-05-16T07:51:56;29.27;;;20.10;;
4375;SDS011;2202;50.866;12.750;2023-05-16T07:54:23;29.00;;;21.50;;
4375;SDS011;2202;50.866;12.750;2023-05-16T07:56:50;98.13;;;37.60;;
4375;SDS011;2202;50.866;12.750;2023-05-16T07:59:18;36.37;;;22.87;;
4375;SDS011;2202;50.866;12.750;2023-05-16T08:01:45;37.20;;;24.13;;
4375;SDS011;2202;50.866;12.750;2023-05-16T08:04:13;32.47;;;22.73;;
4375;SDS011;2202;50.866;12.750;2023-05-16T08:06:39;32.33;;;22.00;;
4375;SDS011;2202;50.866;12.750;2023-05-16T08:09:06;30.70;;;21.73;;
4375;SDS011;2202;50.866;12.750;2023-05-16T08:11:33;36.90;;;24.47;;
4375;SDS011;2202;50.866;12.750;2023-05-16T08:14:01;36.10;;;24.67;;
4375;SDS011;2202;50.866;12.750;2023-05-16T08:16:30;33.27;;;23.73;;
4375;SDS011;2202;50.866;12.750;2023-05-16T08:18:56;30.53;;;22.20;;
4375;SDS011;2202;50.866;12.750;2023-05-16T08:21:23;35.03;;;22.90;;
4375;SDS011;2202;50.866;12.750;2023-05-16T08:23:50;34.57;;;25.70;;
4375;SDS011;2202;50.866;12.750;2023-05-16T08:26:17;33.10;;;23.50;;
4375;SDS011;2202;50.866;12.750;2023-05-16T08:28:46;30.37;;;22.90;;
4375;SDS011;2202;50.866;12.750;2023-05-16T08:31:13;36.50;;;24.23;;
4375;SDS011;2202;50.866;12.750;2023-05-16T08:33:42;35.83;;;23.00;;
4375;SDS011;2202;50.866;12.750;2023-05-16T08:36:09;45.70;;;25.70;;
4375;SDS011;2202;50.866;12.750;2023-05-16T08:38:36;36.80;;;25.43;;
4375;SDS011;2202;50.866;12.750;2023-05-16T08:41:03;36.73;;;24.03;;
4375;SDS011;2202;50.866;12.750;2023-05-16T08:43:30;35.00;;;25.30;;
4375;SDS011;2202;50.866;12.750;2023-05-16T08:45:59;39.30;;;25.20;;
4375;SDS011;2202;50.866;12.750;2023-05-16T08:48:26;36.07;;;24.03;;
4375;SDS011;2202;50.866;12.750;2023-05-16T08:50:55;37.03;;;26.60;;
4375;SDS011;2202;50.866;12.750;2023-05-16T08:53:25;41.77;;;24.97;;
4375;SDS011;2202;50.866;12.750;2023-05-16T08:55:58;39.00;;;27.73;;
4375;SDS011;2202;50.866;12.750;2023-05-16T08:58:25;34.63;;;25.37;;
4375;SDS011;2202;50.866;12.750;2023-05-16T09:00:54;36.63;;;26.40;;
4375;SDS011;2202;50.866;12.750;2023-05-16T09:03:21;41.23;;;26.20;;
4375;SDS011;2202;50.866;12.750;2023-05-16T09:05:49;39.73;;;26.87;;
4375;SDS011;2202;50.866;12.750;2023-05-16T09:08:18;41.13;;;26.40;;
4375;SDS011;2202;50.866;12.750;2023-05-16T09:10:45;40.80;;;27.57;;
4375;SDS011;2202;50.866;12.750;2023-05-16T09:13:12;34.83;;;25.53;;
4375;SDS011;2202;50.866;12.750;2023-05-16T09:15:39;41.17;;;29.33;;
4375;SDS011;2202;50.866;12.750;2023-05-16T09:18:10;40.07;;;26.63;;
4375;SDS011;2202;50.866;12.750;2023-05-16T09:20:37;41.33;;;27.33;;
4375;SDS011;2202;50.866;12.750;2023-05-16T09:23:10;35.70;;;25.70;;
4375;SDS011;2202;50.866;12.750;2023-05-16T09:25:39;34.90;;;22.90;;
4375;SDS011;2202;50.866;12.750;2023-05-16T09:28:09;29.27;;;20.93;;
4375;SDS011;2202;50.866;12.750;2023-05-16T09:30:37;29.50;;;19.83;;
4375;SDS011;2202;50.866;12.750;2023-05-16T09:33:05;23.90;;;18.63;;
4375;SDS011;2202;50.866;12.750;2023-05-16T09:35:32;26.50;;;17.50;;
4375;SDS011;2202;50.866;12.750;2023-05-16T09:37:59;25.20;;;18.17;;
4375;SDS011;2202;50.866;12.750;2023-05-16T09:40:26;24.23;;;17.37;;
4375;SDS011;2202;50.866;12.750;2023-05-16T09:43:00;23.33;;;16.00;;
4375;SDS011;2202;50.866;12.750;2023-05-16T09:45:29;24.40;;;17.97;;
4375;SDS011;2202;50.866;12.750;2023-05-16T09:47:57;23.50;;;17.60;;
4375;SDS011;2202;50.866;12.750;2023-05-16T09:50:27;20.40;;;16.53;;
4375;SDS011;2202;50.866;12.750;2023-05-16T09:52:54;19.20;;;15.30;;
4375;SDS011;2202;50.866;12.750;2023-05-16T09:55:22;20.77;;;16.10;;
4375;SDS011;2202;50.866;12.750;2023-05-16T09:57:49;23.37;;;15.40;;
4375;SDS011;2202;50.866;12.750;2023-05-16T10:00:18;21.33;;;15.37;;
4375;SDS011;2202;50.866;12.750;2023-05-16T10:02:45;17.50;;;15.67;;
4375;SDS011;2202;50.866;12.750;2023-05-16T10:05:12;18.60;;;14.97;;
4375;SDS011;2202;50.866;12.750;2023-05-16T10:07:40;19.47;;;13.93;;
4375;SDS011;2202;50.866;12.750;2023-05-16T10:10:09;16.57;;;13.63;;
4375;SDS011;2202;50.866;12.750;2023-05-16T10:12:38;15.50;;;13.90;;
4375;SDS011;2202;50.866;12.750;2023-05-16T10:15:06;15.03;;;12.27;;
4375;SDS011;2202;50.866;12.750;2023-05-16T10:17:35;14.50;;;11.70;;
4375;SDS011;2202;50.866;12.750;2023-05-16T10:20:06;14.07;;;12.47;;
4375;SDS011;2202;50.866;12.750;2023-05-16T10:22:35;19.40;;;11.77;;
4375;SDS011;2202;50.866;12.750;2023-05-16T10:25:07;11.50;;;10.03;;
4375;SDS011;2202;50.866;12.750;2023-05-16T10:27:38;13.07;;;9.90;;
4375;SDS011;2202;50.866;12.750;2023-05-16T10:30:05;12.30;;;9.20;;
4375;SDS011;2202;50.866;12.750;2023-05-16T10:32:35;12.30;;;9.53;;
4375;SDS011;2202;50.866;12.750;2023-05-16T10:35:02;10.50;;;9.40;;
4375;SDS011;2202;50.866;12.750;2023-05-16T10:37:29;9.70;;;8.70;;
4375;SDS011;2202;50.866;12.750;2023-05-16T10:39:58;8.60;;;7.70;;
4375;SDS011;2202;50.866;12.750;2023-05-16T10:42:26;9.30;;;8.40;;
4375;SDS011;2202;50.866;12.750;2023-05-16T10:44:53;10.83;;;8.70;;
4375;SDS011;2202;50.866;12.750;2023-05-16T10:47:21;11.60;;;8.00;;
4375;SDS011;2202;50.866;12.750;2023-05-16T10:49:49;8.90;;;7.90;;
4375;SDS011;2202;50.866;12.750;2023-05-16T10:52:16;8.17;;;7.13;;
4375;SDS011;2202;50.866;12.750;2023-05-16T10:54:43;7.83;;;7.10;;
4375;SDS011;2202;50.866;12.750;2023-05-16T10:57:17;8.03;;;7.23;;
4375;SDS011;2202;50.866;12.750;2023-05-16T10:59:46;7.53;;;6.80;;
4375;SDS011;2202;50.866;12.750;2023-05-16T11:02:20;10.50;;;9.40;;
4375;SDS011;2202;50.866;12.750;2023-05-16T11:04:50;9.43;;;7.00;;
4375;SDS011;2202;50.866;12.750;2023-05-16T11:07:18;7.90;;;7.10;;
4375;SDS011;2202;50.866;12.750;2023-05-16T11:09:52;7.90;;;7.10;;
4375;SDS011;2202;50.866;12.750;2023-05-16T11:12:35;7.40;;;6.80;;
4375;SDS011;2202;50.866;12.750;2023-05-16T11:15:16;7.63;;;6.73;;
4375;SDS011;2202;50.866;12.750;2023-05-16T11:17:44;7.47;;;6.77;;
4375;SDS011;2202;50.866;12.750;2023-05-16T11:20:25;7.47;;;5.67;;
4375;SDS011;2202;50.866;12.750;2023-05-16T11:23:16;7.80;;;6.00;;
4375;SDS011;2202;50.866;12.750;2023-05-16T11:25:44;6.33;;;5.80;;
4375;SDS011;2202;50.866;12.750;2023-05-16T11:28:13;6.13;;;5.53;;
4375;SDS011;2202;50.866;12.750;2023-05-16T11:30:41;6.30;;;5.70;;
4375;SDS011;2202;50.866;12.750;2023-05-16T11:33:09;10.00;;;5.87;;
4375;SDS011;2202;50.866;12.750;2023-05-16T11:35:38;10.30;;;5.70;;
4375;SDS011;2202;50.866;12.750;2023-05-16T11:38:10;5.93;;;5.40;;
4375;SDS011;2202;50.866;12.750;2023-05-16T11:40:40;9.30;;;8.50;;
4375;SDS011;2202;50.866;12.750;2023-05-16T11:43:08;6.13;;;5.63;;
4375;SDS011;2202;50.866;12.750;2023-05-16T11:45:35;7.20;;;5.60;;
4375;SDS011;2202;50.866;12.750;2023-05-16T11:48:03;5.60;;;5.20;;
4375;SDS011;2202;50.866;12.750;2023-05-16T11:50:32;6.93;;;6.23;;
4375;SDS011;2202;50.866;12.750;2023-05-16T11:53:01;7.97;;;6.27;;
4375;SDS011;2202;50.866;12.750;2023-05-16T11:55:29;11.50;;;7.73;;
4375;SDS011;2202;50.866;12.750;2023-05-16T11:57:57;9.67;;;8.67;;
4375;SDS011;2202;50.866;12.750;2023-05-16T12:00:24;11.83;;;9.23;;
4375;SDS011;2202;50.866;12.750;2023-05-16T12:02:52;19.70;;;11.50;;
4375;SDS011;2202;50.866;12.750;2023-05-16T12:05:20;11.23;;;9.77;;
4375;SDS011;2202;50.866;12.750;2023-05-16T12:07:51;11.80;;;6.83;;
4375;SDS011;2202;50.866;12.750;2023-05-16T12:10:20;7.87;;;6.13;;
4375;SDS011;2202;50.866;12.750;2023-05-16T12:12:49;6.53;;;5.87;;
4375;SDS011;2202;50.866;12.750;2023-05-16T12:15:19;7.13;;;5.33;;
4375;SDS011;2202;50.866;12.750;2023-05-16T12:17:46;13.53;;;6.50;;
4375;SDS011;2202;50.866;12.750;2023-05-16T12:20:13;16.67;;;10.30;;
4375;SDS011;2202;50.866;12.750;2023-05-16T12:22:41;7.97;;;7.13;;
4375;SDS011;2202;50.866;12.750;2023-05-16T12:28:01;6.00;;;5.40;;
4375;SDS011;2202;50.866;12.750;2023-05-16T12:30:30;7.53;;;6.87;;
4375;SDS011;2202;50.866;12.750;2023-05-16T12:32:58;9.50;;;7.57;;
4375;SDS011;2202;50.866;12.750;2023-05-16T12:35:28;9.80;;;8.80;;
4375;SDS011;2202;50.866;12.750;2023-05-16T12:37:56;12.90;;;9.07;;
4375;SDS011;2202;50.866;12.750;2023-05-16T12:40:26;11.73;;;8.23;;
4375;SDS011;2202;50.866;12.750;2023-05-16T12:42:55;14.70;;;10.60;;
4375;SDS011;2202;50.866;12.750;2023-05-16T12:45:22;14.43;;;9.70;;
4375;SDS011;2202;50.866;12.750;2023-05-16T12:47:49;11.70;;;9.30;;
4375;SDS011;2202;50.866;12.750;2023-05-16T12:50:16;15.33;;;10.53;;
4375;SDS011;2202;50.866;12.750;2023-05-16T12:52:46;16.77;;;9.80;;
4375;SDS011;2202;50.866;12.750;2023-05-16T12:55:14;9.70;;;8.27;;
4375;SDS011;2202;50.866;12.750;2023-05-16T12:57:42;9.60;;;8.07;;
4375;SDS011;2202;50.866;12.750;2023-05-16T13:00:11;10.23;;;9.03;;
4375;SDS011;2202;50.866;12.750;2023-05-16T13:02:39;8.27;;;7.10;;
4375;SDS011;2202;50.866;12.750;2023-05-16T13:05:07;11.73;;;9.07;;
4375;SDS011;2202;50.866;12.750;2023-05-16T13:07:34;9.57;;;7.90;;
4375;SDS011;2202;50.866;12.750;2023-05-16T13:10:01;10.00;;;8.40;;
4375;SDS011;2202;50.866;12.750;2023-05-16T13:12:28;13.67;;;11.20;;
4375;SDS011;2202;50.866;12.750;2023-05-16T13:14:55;12.27;;;9.10;;
4375;SDS011;2202;50.866;12.750;2023-05-16T13:17:24;13.60;;;9.10;;
4375;SDS011;2202;50.866;12.750;2023-05-16T13:19:50;9.70;;;8.00;;
4375;SDS011;2202;50.866;12.750;2023-05-16T13:22:17;9.73;;;8.20;;
4375;SDS011;2202;50.866;12.750;2023-05-16T13:24:44;8.53;;;7.63;;
4375;SDS011;2202;50.866;12.750;2023-05-16T13:27:14;12.03;;;7.03;;
4375;SDS011;2202;50.866;12.750;2023-05-16T13:29:41;11.37;;;6.90;;
4375;SDS011;2202;50.866;12.750;2023-05-16T13:32:08;12.60;;;8.10;;
4375;SDS011;2202;50.866;12.750;2023-05-16T13:34:37;9.13;;;6.30;;
4375;SDS011;2202;50.866;12.750;2023-05-16T13:37:04;10.63;;;7.30;;
4375;SDS011;2202;50.866;12.750;2023-05-16T13:39:31;7.87;;;6.93;;
4375;SDS011;2202;50.866;12.750;2023-05-16T13:41:58;8.27;;;7.27;;
4375;SDS011;2202;50.866;12.750;2023-05-16T13:44:27;6.93;;;5.70;;
4375;SDS011;2202;50.866;12.750;2023-05-16T13:46:54;7.67;;;6.90;;
4375;SDS011;2202;50.866;12.750;2023-05-16T13:49:21;11.17;;;6.60;;
4375;SDS011;2202;50.866;12.750;2023-05-16T13:51:50;10.17;;;6.83;;
4375;SDS011;2202;50.866;12.750;2023-05-16T13:54:17;9.40;;;7.10;;
4375;SDS011;2202;50.866;12.750;2023-05-16T13:56:45;12.40;;;7.30;;
4375;SDS011;2202;50.866;12.750;2023-05-16T13:59:13;11.40;;;7.43;;
4375;SDS011;2202;50.866;12.750;2023-05-16T14:01:40;8.63;;;7.70;;
4375;SDS011;2202;50.866;12.750;2023-05-16T14:04:07;10.20;;;7.90;;
4375;SDS011;2202;50.866;12.750;2023-05-16T14:06:33;14.23;;;8.57;;
4375;SDS011;2202;50.866;12.750;2023-05-16T14:09:02;13.07;;;7.53;;
4375;SDS011;2202;50.866;12.750;2023-05-16T14:11:30;14.87;;;8.13;;
4375;SDS011;2202;50.866;12.750;2023-05-16T14:13:57;7.00;;;6.50;;
4375;SDS011;2202;50.866;12.750;2023-05-16T14:16:24;9.07;;;8.20;;
4375;SDS011;2202;50.866;12.750;2023-05-16T14:18:51;8.00;;;7.30;;
4375;SDS011;2202;50.866;12.750;2023-05-16T14:21:18;14.20;;;6.60;;
4375;SDS011;2202;50.866;12.750;2023-05-16T14:23:45;20.70;;;6.87;;
4375;SDS011;2202;50.866;12.750;2023-05-16T14:26:14;8.80;;;6.30;;
4375;SDS011;2202;50.866;12.750;2023-05-16T14:28:42;7.47;;;6.57;;
4375;SDS011;2202;50.866;12.750;2023-05-16T14:31:09;12.53;;;5.70;;
4375;SDS011;2202;50.866;12.750;2023-05-16T14:33:36;10.43;;;6.20;;
4375;SDS011;2202;50.866;12.750;2023-05-16T14:36:05;7.73;;;5.40;;
4375;SDS011;2202;50.866;12.750;2023-05-16T14:38:32;8.60;;;5.30;;
4375;SDS011;2202;50.866;12.750;2023-05-16T14:40:59;9.97;;;4.90;;
4375;SDS011;2202;50.866;12.750;2023-05-16T14:43:27;8.93;;;5.87;;
4375;SDS011;2202;50.866;12.750;2023-05-16T14:45:55;14.40;;;8.33;;
4375;SDS011;2202;50.866;12.750;2023-05-16T14:48:21;5.90;;;4.83;;